Time;durP1;ratioP1;P1;durP2;ratioP2;P2;SDS_P1;SDS_P2;PMS_P1;PMS_P2;Temp;Humidity;BMP_temperature;BMP_pressure;BME280_temperature;BME280_humidity;BME280_pressure;Samples;Min_cycle;Max_cycle;Signal;HPM_P1;HPM_P2
2024/03/07 00:00:16;;;;;;;41.50;22.17;;;;;;;4.62;100.00;97804.88;5072597;28;20041;-64
2024/03/07 00:02:45;;;;;;;39.83;21.85;;;;;;;4.63;100.00;97811.06;5068420;28;20048;-64
2024/03/07 00:05:15;;;;;;;39.25;22.48;;;;;;;4.62;100.00;97806.72;5058969;28;20047;-63
2024/03/07 00:07:42;;;;;;;39.13;20.57;;;;;;;4.76;100.00;97803.03;5059732;28;20558;-63
2024/03/07 00:10:10;;;;;;;37.85;20.67;;;;;;;4.69;100.00;97800.34;5060947;28;20270;-64
2024/03/07 00:12:40;;;;;;;40.90;21.65;;;;;;;4.60;100.00;97806.91;5063604;28;20044;-64
2024/03/07 00:15:08;;;;;;;46.67;24.50;;;;;;;4.54;100.00;97800.50;5064097;28;20040;-64
2024/03/07 00:17:35;;;;;;;41.80;22.00;;;;;;;4.54;100.00;97794.34;5062248;28;20036;-63
2024/03/07 00:20:09;;;;;;;40.03;20.30;;;;;;;4.55;100.00;97799.50;5065245;28;20040;-64
2024/03/07 00:22:36;;;;;;;42.97;22.25;;;;;;;4.60;100.00;97798.88;5054857;28;20064;-64
2024/03/07 00:25:05;;;;;;;43.80;22.40;;;;;;;4.54;100.00;97800.50;5054519;28;20043;-64
2024/03/07 00:27:32;;;;;;;38.15;20.98;;;;;;;4.45;100.00;97799.03;5058551;28;20051;-64
2024/03/07 00:29:59;;;;;;;40.70;23.40;;;;;;;4.36;100.00;97805.63;5074043;28;20047;-64
2024/03/07 00:32:29;;;;;;;44.20;21.33;;;;;;;4.28;100.00;97810.13;5054343;28;20064;-64
2024/03/07 00:34:59;;;;;;;39.65;21.08;;;;;;;4.32;100.00;97807.03;5056584;28;20427;-64
2024/03/07 00:37:26;;;;;;;46.45;22.80;;;;;;;4.29;100.00;97808.28;5069659;28;20044;-64
2024/03/07 00:39:52;;;;;;;41.85;22.30;;;;;;;4.25;100.00;97798.97;5063911;28;20044;-64
2024/03/07 00:42:19;;;;;;;44.75;22.90;;;;;;;4.12;100.00;97803.25;5079507;28;20511;-64
2024/03/07 00:44:46;;;;;;;43.42;22.83;;;;;;;4.00;100.00;97807.53;5062882;28;20098;-64
2024/03/07 00:47:13;;;;;;;45.00;22.38;;;;;;;3.94;100.00;97809.13;5063797;28;20039;-65
2024/03/07 00:49:40;;;;;;;40.75;21.85;;;;;;;3.95;100.00;97801.94;5056005;28;20416;-64
2024/03/07 00:52:06;;;;;;;47.03;24.67;;;;;;;3.77;100.00;97801.44;5073336;28;20127;-64
2024/03/07 00:54:33;;;;;;;45.70;23.58;;;;;;;3.67;100.00;97798.28;5066489;28;20032;-63
2024/03/07 00:56:59;;;;;;;48.55;24.83;;;;;;;3.53;100.00;97804.59;5070107;28;20523;-64
2024/03/07 00:59:26;;;;;;;47.83;24.77;;;;;;;3.49;100.00;97794.25;5059153;28;20060;-64
2024/03/07 01:01:52;;;;;;;49.40;26.63;;;;;;;3.42;100.00;97788.03;5053640;28;20049;-64
2024/03/07 01:04:19;;;;;;;48.15;25.40;;;;;;;3.42;100.00;97792.56;5059866;28;20531;-64
2024/03/07 01:06:46;;;;;;;47.50;25.17;;;;;;;3.39;100.00;97780.38;5068445;28;20041;-64
2024/03/07 01:09:16;;;;;;;47.25;24.77;;;;;;;3.33;100.00;97775.81;5062860;28;20044;-64
2024/03/07 01:11:45;;;;;;;49.08;25.15;;;;;;;3.33;100.00;97779.34;5059285;28;20162;-64
2024/03/07 01:14:13;;;;;;;41.97;22.27;;;;;;;3.42;100.00;97771.97;5063180;28;20064;-63
2024/03/07 01:16:39;;;;;;;45.55;24.65;;;;;;;3.32;100.00;97766.94;5061271;28;20111;-64
2024/03/07 01:19:07;;;;;;;45.97;24.00;;;;;;;3.35;100.00;97776.44;5065880;28;20435;-64
2024/03/07 01:21:36;;;;;;;44.75;23.25;;;;;;;3.28;100.00;97770.22;5068437;28;20119;-64
2024/03/07 01:24:05;;;;;;;44.05;23.58;;;;;;;3.19;100.00;97766.88;5060883;28;20039;-64
2024/03/07 01:26:33;;;;;;;49.40;25.90;;;;;;;3.16;100.00;97761.91;5053903;28;20516;-63
2024/03/07 01:29:00;;;;;;;49.05;23.95;;;;;;;3.11;100.00;97766.00;5065150;28;20098;-63
2024/03/07 01:31:27;;;;;;;49.20;25.13;;;;;;;3.06;100.00;97756.91;5070086;28;20137;-64
2024/03/07 01:33:54;;;;;;;44.67;24.52;;;;;;;3.00;100.00;97758.50;5062773;28;20076;-63
2024/03/07 01:36:21;;;;;;;44.72;25.48;;;;;;;2.99;100.00;97756.84;5062634;28;20064;-63
2024/03/07 01:38:48;;;;;;;42.75;23.75;;;;;;;2.96;100.00;97755.38;5060244;28;20094;-63
2024/03/07 01:41:15;;;;;;;45.85;25.02;;;;;;;2.89;100.00;97756.34;5064943;28;20466;-63
2024/03/07 01:43:42;;;;;;;46.55;24.90;;;;;;;2.83;100.00;97749.91;5061801;28;20674;-63
2024/03/07 01:46:10;;;;;;;42.75;24.25;;;;;;;2.82;100.00;97756.28;5076049;28;20032;-63
2024/03/07 01:48:37;;;;;;;46.47;25.55;;;;;;;2.78;100.00;97750.50;5063403;28;20488;-63
2024/03/07 01:51:04;;;;;;;43.15;25.05;;;;;;;2.76;100.00;97749.03;5067281;28;20047;-63
2024/03/07 01:53:31;;;;;;;46.20;25.02;;;;;;;2.68;100.00;97749.97;5055515;28;20778;-63
2024/03/07 01:56:02;;;;;;;48.50;26.45;;;;;;;2.69;100.00;97751.66;5064531;28;20482;-63
2024/03/07 01:58:30;;;;;;;45.80;24.85;;;;;;;2.63;100.00;97741.72;5071445;28;20039;-63
2024/03/07 02:00:58;;;;;;;46.33;26.00;;;;;;;2.62;100.00;97743.56;5068435;28;20048;-63
2024/03/07 02:03:24;;;;;;;43.97;23.92;;;;;;;2.60;100.00;97741.09;5063397;28;20044;-65
2024/03/07 02:05:51;;;;;;;51.50;26.02;;;;;;;2.59;100.00;97736.75;5062423;28;20036;-65
2024/03/07 02:08:19;;;;;;;50.13;26.35;;;;;;;2.56;100.00;97736.31;5061776;28;20769;-66
2024/03/07 02:10:46;;;;;;;41.33;24.85;;;;;;;2.49;100.00;97741.59;5054184;28;20045;-63
2024/03/07 02:13:12;;;;;;;46.30;25.00;;;;;;;2.42;100.00;97738.84;5057667;28;20052;-65
2024/03/07 02:15:39;;;;;;;53.88;26.60;;;;;;;2.36;100.00;97731.56;5068374;28;20039;-65
2024/03/07 02:18:06;;;;;;;47.97;24.65;;;;;;;2.31;100.00;97732.16;5061893;28;20046;-63
2024/03/07 02:20:32;;;;;;;47.88;26.02;;;;;;;1.95;100.00;97722.31;5061508;28;20573;-62
2024/03/07 02:22:59;;;;;;;46.60;24.23;;;;;;;1.68;100.00;97730.00;5053170;28;20124;-66
2024/03/07 02:25:25;;;;;;;50.22;26.98;;;;;;;1.55;100.00;97726.13;5058180;28;20054;-66
2024/03/07 02:27:52;;;;;;;57.80;27.33;;;;;;;1.37;100.00;97725.69;5068957;28;20056;-66
2024/03/07 02:30:18;;;;;;;53.33;26.90;;;;;;;1.08;100.00;97722.00;5072113;28;20053;-65
2024/03/07 02:33:07;;;;;;;53.83;28.73;;;;;;;0.87;100.00;97723.50;5067784;28;20040;-65
2024/03/07 02:35:37;;;;;;;51.95;26.23;;;;;;;0.68;100.00;97730.19;5060584;28;20064;-66
2024/03/07 02:38:05;;;;;;;54.78;27.38;;;;;;;0.62;100.00;97731.72;5058173;28;20036;-65
2024/03/07 02:40:31;;;;;;;64.32;30.08;;;;;;;0.58;100.00;97735.75;5058476;28;20515;-66
2024/03/07 02:42:58;;;;;;;61.10;30.08;;;;;;;0.43;100.00;97733.88;5057301;28;20044;-66
2024/03/07 02:45:25;;;;;;;63.55;29.40;;;;;;;0.40;100.00;97738.72;5060836;28;20041;-65
2024/03/07 02:47:53;;;;;;;60.47;27.13;;;;;;;0.32;100.00;97742.25;5068636;28;20511;-65
2024/03/07 02:50:21;;;;;;;63.20;29.60;;;;;;;0.21;100.00;97741.69;5061021;28;20051;-65
2024/03/07 02:52:49;;;;;;;56.70;26.38;;;;;;;0.17;100.00;97744.84;5054991;28;20504;-66
2024/03/07 02:55:16;;;;;;;59.88;28.17;;;;;;;0.08;100.00;97736.91;5068912;28;20032;-65
2024/03/07 02:57:42;;;;;;;62.20;29.08;;;;;;;0.04;100.00;97745.44;5056774;28;20044;-65
2024/03/07 03:00:26;;;;;;;55.60;28.98;;;;;;;-0.12;100.00;97749.84;5053032;28;20032;-65
2024/03/07 03:02:53;;;;;;;60.72;27.58;;;;;;;0.05;100.00;97761.25;5067903;28;20053;-65
2024/03/07 03:05:20;;;;;;;60.30;27.98;;;;;;;-0.09;100.00;97765.47;5065906;28;20557;-65
2024/03/07 03:07:53;;;;;;;70.57;33.53;;;;;;;-0.17;100.00;97762.84;5062343;28;20041;-65
2024/03/07 03:10:20;;;;;;;61.67;28.33;;;;;;;-0.29;100.00;97757.88;5061572;28;20219;-65
2024/03/07 03:12:47;;;;;;;61.00;27.25;;;;;;;-0.33;100.00;97758.44;5053066;28;20057;-65
2024/03/07 03:15:14;;;;;;;75.50;30.13;;;;;;;-0.36;100.00;97764.09;5066846;28;20051;-65
2024/03/07 03:17:41;;;;;;;67.70;31.25;;;;;;;-0.47;100.00;97758.16;5060644;28;20093;-65
2024/03/07 03:20:24;;;;;;;69.22;29.02;;;;;;;-0.29;100.00;97789.00;5064663;28;20049;-65
2024/03/07 03:22:52;;;;;;;56.70;27.25;;;;;;;-0.41;100.00;97778.72;5070206;28;20119;-65
2024/03/07 03:25:39;;;;;;;64.28;27.27;;;;;;;-0.29;100.00;97789.00;5062045;28;20037;-65
2024/03/07 03:28:06;;;;;;;71.55;29.42;;;;;;;-0.28;100.00;97790.66;5066382;28;20044;-64
2024/03/07 03:30:32;;;;;;;73.80;29.95;;;;;;;-0.57;100.00;97774.28;5067237;28;20044;-65
2024/03/07 03:33:00;;;;;;;63.20;28.08;;;;;;;-0.61;100.00;97766.81;5063642;28;20036;-64
2024/03/07 03:35:26;;;;;;;69.13;30.60;;;;;;;-0.46;100.00;97778.41;5063924;28;20048;-64
2024/03/07 03:37:53;;;;;;;81.32;31.70;;;;;;;-0.35;100.00;97787.88;5058359;28;20644;-65
2024/03/07 03:40:19;;;;;;;70.05;29.73;;;;;;;-0.41;100.00;97789.38;5066277;28;20036;-65
2024/03/07 03:42:46;;;;;;;79.72;30.25;;;;;;;-0.61;100.00;97774.78;5059862;28;20447;-64
2024/03/07 03:45:14;;;;;;;69.60;27.08;;;;;;;-0.56;100.00;97773.28;5062749;28;20044;-64
2024/03/07 03:47:42;;;;;;;77.28;30.40;;;;;;;-0.43;100.00;97777.25;5066392;28;20068;-64
2024/03/07 03:50:11;;;;;;;71.65;28.58;;;;;;;-0.32;100.00;97786.69;5059041;28;20060;-65
2024/03/07 03:52:38;;;;;;;73.13;31.40;;;;;;;-0.43;100.00;97779.91;5062063;28;20044;-64
2024/03/07 03:55:05;;;;;;;70.95;30.15;;;;;;;-0.56;100.00;97772.44;5060704;28;20097;-65
2024/03/07 03:57:33;;;;;;;67.72;28.67;;;;;;;-0.66;100.00;97757.50;5063062;28;20066;-65
2024/03/07 03:59:59;;;;;;;73.97;30.55;;;;;;;-0.75;100.00;97750.56;5070121;28;20048;-66
2024/03/07 04:02:26;;;;;;;72.38;29.98;;;;;;;-0.80;100.00;97752.91;5070905;28;20032;-64
2024/03/07 04:04:53;;;;;;;71.25;28.67;;;;;;;-0.97;100.00;97758.25;5060690;28;20123;-64
2024/03/07 04:07:20;;;;;;;68.43;29.13;;;;;;;-0.98;100.00;97761.91;5059822;28;20039;-65
2024/03/07 04:09:47;;;;;;;68.10;26.50;;;;;;;-0.71;100.00;97773.16;5062872;28;20075;-65
2024/03/07 04:12:15;;;;;;;73.53;28.80;;;;;;;-0.84;100.00;97772.84;5052963;28;20113;-64
2024/03/07 04:14:43;;;;;;;72.20;30.63;;;;;;;-1.23;100.00;97764.59;5051934;28;20050;-65
2024/03/07 04:17:13;;;;;;;65.57;27.92;;;;;;;-1.20;100.00;97758.09;5061515;28;20032;-64
2024/03/07 04:19:41;;;;;;;64.53;29.02;;;;;;;-1.05;100.00;97766.22;5062814;28;20451;-65
2024/03/07 04:22:08;;;;;;;74.25;29.85;;;;;;;-0.89;100.00;97783.97;5063942;28;20032;-65
2024/03/07 04:24:35;;;;;;;79.20;29.23;;;;;;;-1.12;100.00;97775.88;5050034;28;20044;-65
2024/03/07 04:27:06;;;;;;;71.43;29.52;;;;;;;-1.19;100.00;97760.59;5066348;28;20040;-65
2024/03/07 04:29:33;;;;;;;77.90;33.63;;;;;;;-1.18;100.00;97764.91;5057529;28;20036;-64
2024/03/07 04:32:01;;;;;;;80.60;31.63;;;;;;;-1.10;100.00;97772.03;5063709;28;20036;-65
2024/03/07 04:34:30;;;;;;;76.50;29.15;;;;;;;-1.11;100.00;97769.56;5062904;28;20036;-65
2024/03/07 04:36:58;;;;;;;79.78;29.90;;;;;;;-1.10;100.00;97769.38;5058067;28;20578;-64
2024/03/07 04:39:32;;;;;;;83.78;33.88;;;;;;;-1.19;100.00;97773.03;5057836;28;20037;-65
2024/03/07 04:42:03;;;;;;;81.93;33.17;;;;;;;-1.26;100.00;97766.75;5061930;28;20071;-65
2024/03/07 04:44:30;;;;;;;77.82;30.02;;;;;;;-1.23;100.00;97774.38;5072018;28;20127;-65
2024/03/07 04:46:58;;;;;;;83.40;30.73;;;;;;;-1.24;100.00;97768.25;5067704;28;20041;-65
2024/03/07 04:49:27;;;;;;;71.40;30.33;;;;;;;-1.34;100.00;97762.25;5057855;28;20469;-65
2024/03/07 04:51:56;;;;;;;84.43;32.45;;;;;;;-1.35;100.00;97768.56;5057264;28;20598;-65
2024/03/07 04:54:24;;;;;;;76.85;30.00;;;;;;;-1.25;100.00;97777.19;5052390;28;20041;-66
2024/03/07 04:56:52;;;;;;;74.95;30.45;;;;;;;-1.25;100.00;97774.53;5063215;28;20040;-64
2024/03/07 04:59:19;;;;;;;100.72;34.58;;;;;;;-0.93;100.00;97788.81;5065816;28;20392;-65
2024/03/07 05:01:47;;;;;;;82.35;30.75;;;;;;;-1.10;100.00;97795.16;5061997;28;20048;-64
2024/03/07 05:04:14;;;;;;;86.47;30.83;;;;;;;-1.25;100.00;97776.38;5060435;28;20516;-65
2024/03/07 05:06:41;;;;;;;91.20;33.08;;;;;;;-1.36;100.00;97767.72;5051891;28;20483;-64
2024/03/07 05:09:09;;;;;;;80.75;31.65;;;;;;;-1.39;100.00;97769.91;5058088;28;20078;-65
2024/03/07 05:11:36;;;;;;;88.10;30.60;;;;;;;-1.32;100.00;97776.22;5051396;28;20049;-65
2024/03/07 05:14:03;;;;;;;83.10;31.90;;;;;;;-1.42;100.00;97772.88;5062526;28;20644;-65
2024/03/07 05:16:34;;;;;;;93.68;33.25;;;;;;;-1.49;100.00;97765.56;5070185;28;20419;-65
2024/03/07 05:19:00;;;;;;;93.25;33.00;;;;;;;-1.39;100.00;97769.91;5059053;28;20064;-64
2024/03/07 05:24:00;;;;;;;91.95;33.67;;;;;;;-1.42;100.00;97780.84;5065108;28;20098;-64
2024/03/07 05:26:27;;;;;;;96.50;32.97;;;;;;;-1.52;100.00;97778.38;5057422;28;20045;-65
2024/03/07 05:28:56;;;;;;;78.80;32.38;;;;;;;-1.51;100.00;97769.41;5069766;28;20063;-64
2024/03/07 05:31:23;;;;;;;91.35;33.28;;;;;;;-1.52;100.00;97773.88;5055939;28;20498;-64
2024/03/07 05:33:50;;;;;;;84.03;31.65;;;;;;;-1.53;100.00;97776.69;5068051;28;20041;-64
2024/03/07 05:36:16;;;;;;;91.95;34.03;;;;;;;-1.54;100.00;97775.03;5071806;28;20097;-65
2024/03/07 05:38:43;;;;;;;87.72;35.95;;;;;;;-1.59;100.00;97776.34;5063883;28;20518;-64
2024/03/07 05:41:12;;;;;;;93.80;35.70;;;;;;;-1.58;100.00;97780.66;5064524;28;20048;-64
2024/03/07 05:43:39;;;;;;;90.80;33.97;;;;;;;-1.63;100.00;97769.69;5060291;28;20055;-64
2024/03/07 05:46:10;;;;;;;95.78;33.08;;;;;;;-1.56;100.00;97780.50;5053488;28;20724;-64
2024/03/07 05:48:37;;;;;;;88.57;33.08;;;;;;;-1.56;100.00;97780.50;5059325;28;20046;-64
2024/03/07 05:51:04;;;;;;;95.57;32.30;;;;;;;-1.61;100.00;97772.19;5057192;28;20080;-64
2024/03/07 05:53:30;;;;;;;93.93;34.03;;;;;;;-1.66;100.00;97775.34;5052433;28;20079;-64
2024/03/07 05:55:57;;;;;;;86.43;33.85;;;;;;;-1.72;100.00;97768.03;5068759;28;20056;-64
2024/03/07 05:58:23;;;;;;;94.75;32.92;;;;;;;-1.76;100.00;97761.38;5065419;28;20048;-64
2024/03/07 06:00:50;;;;;;;91.53;32.85;;;;;;;-1.69;100.00;97767.72;5057324;28;20530;-65
2024/03/07 06:03:20;;;;;;;86.97;32.30;;;;;;;-1.69;100.00;97775.69;5066204;28;20060;-64
2024/03/07 06:05:48;;;;;;;101.78;35.88;;;;;;;-1.61;100.00;97774.84;5058097;28;20594;-65
2024/03/07 06:08:18;;;;;;;92.00;32.58;;;;;;;-1.67;100.00;97767.56;5052212;28;20569;-64
2024/03/07 06:10:45;;;;;;;90.65;34.33;;;;;;;-1.61;100.00;97765.06;5059784;28;20037;-65
2024/03/07 06:13:12;;;;;;;87.72;33.67;;;;;;;-1.77;100.00;97751.78;5063723;28;20594;-64
2024/03/07 06:15:39;;;;;;;86.60;32.40;;;;;;;-1.71;100.00;97759.91;5055943;28;20097;-65
2024/03/07 06:18:10;;;;;;;94.13;36.17;;;;;;;-1.82;100.00;97757.56;5049160;28;20040;-64
2024/03/07 06:20:38;;;;;;;;;;;;;;;-1.74;100.00;97756.72;5062072;28;20040;-65
2024/03/07 06:23:05;;;;;;;77.95;29.50;;;;;;;-1.64;100.00;97754.78;5062035;28;19924;-65
2024/03/07 06:25:47;;;;;;;84.38;31.85;;;;;;;-1.65;100.00;97765.56;5058230;28;20041;-65
2024/03/07 06:28:14;;;;;;;86.75;31.90;;;;;;;-1.59;100.00;97757.75;5050951;28;20041;-65
2024/03/07 06:30:42;;;;;;;95.20;33.13;;;;;;;-1.54;100.00;97759.09;5051711;28;20127;-65
2024/03/07 06:33:10;;;;;;;101.30;33.45;;;;;;;-1.49;100.00;97748.78;5066151;28;20086;-64
2024/03/07 06:35:38;;;;;;;104.68;37.15;;;;;;;-1.28;100.00;97764.25;5057987;28;20051;-65
2024/03/07 06:38:10;;;;;;;92.70;33.42;;;;;;;-1.41;100.00;97748.00;5064464;28;20059;-65
2024/03/07 06:40:40;;;;;;;99.80;34.97;;;;;;;-1.35;100.00;97744.66;5066422;28;20093;-65
2024/03/07 06:43:07;;;;;;;96.82;33.05;;;;;;;-1.24;100.00;97743.50;5051646;28;20048;-65
2024/03/07 06:45:33;;;;;;;96.38;36.45;;;;;;;-1.33;100.00;97740.03;5061617;28;20040;-65
2024/03/07 06:48:00;;;;;;;91.10;32.90;;;;;;;-1.31;100.00;97735.34;5052398;28;20048;-66
2024/03/07 06:50:28;;;;;;;89.22;33.45;;;;;;;-1.30;100.00;97737.00;5048328;28;20032;-65
2024/03/07 06:53:06;;;;;;;90.70;34.70;;;;;;;-1.27;100.00;97735.84;5068894;28;20102;-65
2024/03/07 06:55:36;;;;;;;91.47;33.22;;;;;;;-1.22;100.00;97733.53;5059700;28;20112;-65
2024/03/07 06:58:05;;;;;;;86.95;33.17;;;;;;;-1.15;100.00;97736.34;5071176;28;20525;-64
2024/03/07 07:00:35;;;;;;;88.63;32.97;;;;;;;-1.16;100.00;97727.53;5056896;28;20432;-64
2024/03/07 07:03:05;;;;;;;81.18;31.25;;;;;;;-1.14;100.00;97730.84;5062132;28;20032;-65
2024/03/07 07:05:33;;;;;;;86.95;30.67;;;;;;;-1.07;100.00;97731.84;5061120;28;20127;-64
2024/03/07 07:08:01;;;;;;;86.60;33.67;;;;;;;-1.01;100.00;97727.69;5057320;28;20514;-64
2024/03/07 07:10:27;;;;;;;76.68;30.83;;;;;;;-0.96;100.00;97733.31;5063043;28;20061;-65
2024/03/07 07:12:54;;;;;;;79.35;33.00;;;;;;;-0.88;100.00;97731.66;5052565;28;22058;-64
2024/03/07 07:15:21;;;;;;;83.78;32.00;;;;;;;-0.72;100.00;97742.25;5064315;28;20455;-64
2024/03/07 07:17:49;;;;;;;87.28;33.17;;;;;;;-0.69;100.00;97731.28;5058551;28;20041;-64
2024/03/07 07:20:17;;;;;;;88.18;33.92;;;;;;;-0.53;100.00;97738.38;5065392;28;20048;-65
2024/03/07 07:22:49;;;;;;;94.93;31.63;;;;;;;-0.33;100.00;97739.81;5058230;28;20412;-65
2024/03/07 07:25:16;;;;;;;88.10;31.70;;;;;;;-0.10;100.00;97757.66;5057580;28;20127;-65
2024/03/07 07:27:47;;;;;;;87.30;31.42;;;;;;;0.10;100.00;97742.06;5064177;28;20032;-65
2024/03/07 07:30:19;;;;;;;90.17;37.07;;;;;;;0.36;100.00;97743.56;5060991;28;20524;-64
2024/03/07 07:32:45;;;;;;;;;;;;;;;0.41;100.00;97713.75;5058560;28;20044;-64
2024/03/07 07:35:12;;;;;;;81.47;30.17;;;;;;;0.41;100.00;97682.63;5067125;28;19978;-64
2024/03/07 07:37:40;;;;;;;80.03;30.40;;;;;;;0.48;100.00;97675.53;5060917;28;20151;-64
2024/03/07 07:40:08;;;;;;;73.93;30.25;;;;;;;0.56;100.00;97664.00;5058631;28;20693;-64
2024/03/07 07:42:38;;;;;;;68.53;28.42;;;;;;;0.60;100.00;97657.31;5050906;28;20068;-64
2024/03/07 07:45:07;;;;;;;57.47;26.65;;;;;;;0.64;100.00;97655.09;5062450;28;20043;-63
2024/03/07 07:47:37;;;;;;;57.85;27.40;;;;;;;0.70;100.00;97649.03;5063480;28;20115;-64
2024/03/07 07:50:12;;;;;;;50.65;26.08;;;;;;;0.80;100.00;97646.09;5068660;28;20515;-63
2024/03/07 07:52:53;;;;;;;47.95;24.25;;;;;;;0.89;100.00;97639.66;5057576;28;20515;-64
2024/03/07 07:55:21;;;;;;;44.00;23.05;;;;;;;1.00;100.00;97648.25;5056506;28;20560;-63
2024/03/07 07:57:52;;;;;;;42.30;21.73;;;;;;;1.02;100.00;97639.03;5060695;28;20124;-49
2024/03/07 08:00:23;;;;;;;39.13;20.60;;;;;;;1.23;100.00;97641.97;5059596;28;20915;-52
2024/03/07 08:02:52;;;;;;;43.97;21.75;;;;;;;1.44;100.00;97638.56;5055532;28;20131;-51
2024/03/07 08:05:22;;;;;;;39.05;19.02;;;;;;;1.60;100.00;97642.00;5044106;28;20048;-49
2024/03/07 08:07:50;;;;;;;38.60;19.30;;;;;;;1.69;100.00;97632.88;5049671;28;20053;-51
2024/03/07 08:10:18;;;;;;;37.42;18.85;;;;;;;1.96;100.00;97633.19;5059789;28;20551;-49
2024/03/07 08:12:45;;;;;;;29.00;17.30;;;;;;;1.81;100.00;97633.22;5053534;28;20060;-53
2024/03/07 08:15:15;;;;;;;27.83;17.67;;;;;;;1.69;100.00;97633.72;5056643;28;20049;-53
2024/03/07 08:17:43;;;;;;;31.80;17.75;;;;;;;1.64;100.00;97635.28;5057374;28;20036;-52
2024/03/07 08:20:14;;;;;;;32.25;17.27;;;;;;;1.70;100.00;97629.22;5048582;28;20041;-52
2024/03/07 08:22:42;;;;;;;32.42;18.83;;;;;;;1.91;100.00;97627.56;5055263;28;20538;-48
2024/03/07 08:25:10;;;;;;;29.58;17.52;;;;;;;2.24;100.00;97635.06;5051769;28;20737;-52
2024/03/07 08:27:38;;;;;;;33.63;18.13;;;;;;;2.42;100.00;97629.28;5060447;28;20044;-50
2024/03/07 08:30:12;;;;;;;31.80;17.52;;;;;;;2.45;100.00;97634.25;5061043;28;20128;-53
2024/03/07 08:32:44;;;;;;;29.60;17.75;;;;;;;2.50;100.00;97633.63;5064199;28;20051;-52
2024/03/07 08:35:11;;;;;;;32.75;18.55;;;;;;;2.48;100.00;97638.38;5057616;28;20048;-52
2024/03/07 08:37:39;;;;;;;34.53;18.95;;;;;;;2.64;100.00;97631.06;5056873;28;20494;-52
2024/03/07 08:40:10;;;;;;;33.83;19.10;;;;;;;2.80;100.00;97624.63;5062199;28;20089;-52
2024/03/07 08:42:37;;;;;;;30.42;17.38;;;;;;;2.89;100.00;97631.47;5056632;28;20075;-62
2024/03/07 08:45:05;;;;;;;30.25;17.38;;;;;;;2.85;100.00;97627.53;5055368;28;20693;-61
2024/03/07 08:47:32;;;;;;;30.30;16.85;;;;;;;2.59;100.00;97631.66;5065630;28;20072;-63
2024/03/07 08:50:00;;;;;;;29.48;17.15;;;;;;;2.65;100.00;97627.41;5059963;28;20047;-65
2024/03/07 08:52:27;;;;;;;32.38;18.85;;;;;;;2.62;100.00;97636.63;5056804;28;20051;-65
2024/03/07 08:54:54;;;;;;;30.52;18.75;;;;;;;2.64;100.00;97625.72;5072661;28;20534;-66
2024/03/07 08:57:21;;;;;;;33.58;19.67;;;;;;;2.73;100.00;97627.25;5071666;28;20041;-64
2024/03/07 08:59:48;;;;;;;31.45;18.00;;;;;;;2.63;100.00;97624.91;5066323;28;20133;-65
2024/03/07 09:02:16;;;;;;;34.42;18.65;;;;;;;2.45;100.00;97618.19;5067038;28;20408;-65
2024/03/07 09:04:42;;;;;;;37.53;21.00;;;;;;;2.70;100.00;97620.41;5068759;28;20067;-66
2024/03/07 09:07:09;;;;;;;32.72;19.42;;;;;;;2.63;100.00;97613.38;5057703;28;20044;-65
2024/03/07 09:09:36;;;;;;;30.50;18.10;;;;;;;2.72;100.00;97621.06;5054193;28;20047;-63
2024/03/07 09:12:02;;;;;;;29.08;18.13;;;;;;;2.91;100.00;97621.38;5054634;28;20169;-64
2024/03/07 09:14:29;;;;;;;33.78;18.92;;;;;;;2.87;100.00;97628.13;5066167;28;20207;-65
2024/03/07 09:16:57;;;;;;;30.98;17.58;;;;;;;3.20;100.00;97619.50;5062533;28;20045;-62
2024/03/07 09:19:27;;;;;;;31.58;17.27;;;;;;;3.16;100.00;97612.88;5056222;28;20044;-63
2024/03/07 09:21:54;;;;;;;30.55;18.23;;;;;;;3.04;100.00;97609.09;5065590;28;20074;-62
2024/03/07 09:24:23;;;;;;;32.17;18.58;;;;;;;2.95;100.00;97614.63;5048623;28;20632;-63
2024/03/07 09:26:51;;;;;;;28.95;17.52;;;;;;;3.30;100.00;97605.75;5060706;28;20093;-63
2024/03/07 09:29:19;;;;;;;31.95;17.55;;;;;;;3.41;100.00;97604.34;5050070;28;20037;-66
2024/03/07 09:31:49;;;;;;;31.65;20.20;;;;;;;3.31;100.00;97601.22;5067084;28;20056;-63
2024/03/07 09:34:16;;;;;;;29.10;18.35;;;;;;;3.40;100.00;97607.22;5073035;28;20048;-62
2024/03/07 09:36:42;;;;;;;29.13;18.67;;;;;;;3.74;100.00;97600.13;5059521;28;20043;-64
2024/03/07 09:39:09;;;;;;;28.73;17.80;;;;;;;3.96;100.00;97599.97;5058467;28;20060;-66
2024/03/07 09:41:36;;;;;;;30.92;16.85;;;;;;;3.96;100.00;97602.63;5056139;28;20037;-65
2024/03/07 09:44:04;;;;;;;32.17;18.02;;;;;;;3.81;100.00;97597.47;5049321;28;20082;-65
2024/03/07 09:46:32;;;;;;;34.35;17.88;;;;;;;3.93;100.00;97593.16;5055965;28;20044;-65
2024/03/07 09:48:58;;;;;;;30.38;18.17;;;;;;;4.13;100.00;97600.41;5055505;28;20052;-65
2024/03/07 09:51:27;;;;;;;31.80;17.40;;;;;;;4.13;100.00;97587.81;5057502;28;20045;-65
2024/03/07 09:53:58;;;;;;;32.00;19.52;;;;;;;4.06;100.00;97588.84;5050074;28;20041;-65
2024/03/07 09:56:26;;;;;;;31.50;18.92;;;;;;;3.97;100.00;97589.03;5056311;28;20064;-65
2024/03/07 09:58:57;;;;;;;38.42;20.75;;;;;;;4.00;100.00;97587.81;5053382;28;20033;-66
2024/03/07 10:01:26;;;;;;;33.42;19.55;;;;;;;4.09;100.00;97589.25;5049044;28;20037;-64
2024/03/07 10:03:58;;;;;;;36.53;19.77;;;;;;;4.16;100.00;97595.47;5051253;28;20045;-63
2024/03/07 10:06:26;;;;;;;35.78;20.88;;;;;;;4.16;100.00;97594.63;5058167;28;20041;-64
2024/03/07 10:08:53;;;;;;;37.30;21.08;;;;;;;4.03;100.00;97590.09;5051928;28;20053;-64
2024/03/07 10:11:20;;;;;;;44.25;20.33;;;;;;;4.08;100.00;97594.81;5054145;28;20094;-63
2024/03/07 10:13:49;;;;;;;34.00;19.88;;;;;;;4.37;100.00;97590.09;5047572;28;20058;-64
2024/03/07 10:16:17;;;;;;;38.90;21.33;;;;;;;4.32;100.00;97595.25;5051802;28;20040;-64
2024/03/07 10:18:45;;;;;;;37.95;21.15;;;;;;;4.19;100.00;97594.22;5046853;28;22215;-63
2024/03/07 10:21:19;;;;;;;44.55;22.15;;;;;;;4.13;100.00;97592.38;5067282;28;20047;-64
2024/03/07 10:23:47;;;;;;;37.95;21.13;;;;;;;4.14;100.00;97592.16;5057158;28;20044;-63
2024/03/07 10:26:15;;;;;;;33.38;19.15;;;;;;;4.35;100.00;97595.66;5054630;28;20801;-65
2024/03/07 10:28:42;;;;;;;38.05;20.40;;;;;;;4.65;100.00;97591.75;5066074;28;20442;-64
2024/03/07 10:31:11;;;;;;;33.83;20.70;;;;;;;4.73;100.00;97586.16;5054005;28;20044;-63
2024/03/07 10:33:39;;;;;;;32.85;19.88;;;;;;;4.27;100.00;97587.81;5049107;28;20055;-63
2024/03/07 10:36:10;;;;;;;34.28;19.23;;;;;;;4.36;100.00;97583.09;5062642;28;20032;-63
2024/03/07 10:38:37;;;;;;;37.70;20.33;;;;;;;4.35;100.00;97576.91;5063716;28;20037;-63
2024/03/07 10:41:08;;;;;;;37.75;19.77;;;;;;;4.64;100.00;97574.81;5060603;28;20048;-63
2024/03/07 10:43:40;;;;;;;33.08;19.10;;;;;;;4.50;100.00;97565.94;5064304;28;20058;-63
2024/03/07 10:46:10;;;;;;;35.10;20.52;;;;;;;4.80;100.00;97568.19;5060786;28;20068;-63
2024/03/07 10:48:39;;;;;;;35.58;19.52;;;;;;;4.82;100.00;97571.50;5058620;28;21385;-63
2024/03/07 10:51:30;;;;;;;35.00;18.90;;;;;;;4.68;100.00;97576.06;5053853;28;20479;-63
2024/03/07 10:54:17;;;;;;;30.98;18.33;;;;;;;4.75;100.00;97561.81;5055049;28;20044;-63
2024/03/07 10:57:05;;;;;;;32.55;17.15;;;;;;;4.85;100.00;97564.03;5059727;28;20688;-62
2024/03/07 10:59:34;;;;;;;32.60;17.13;;;;;;;4.98;100.00;97564.03;5055905;28;20123;-63
2024/03/07 11:02:19;;;;;;;33.40;18.00;;;;;;;4.95;100.00;97559.88;5066665;28;20080;-63
2024/03/07 11:04:49;;;;;;;31.02;17.70;;;;;;;4.97;100.00;97559.69;5063840;28;20273;-63
2024/03/07 11:07:16;;;;;;;33.28;18.70;;;;;;;4.91;100.00;97566.69;5059113;28;20045;-63
2024/03/07 11:09:45;;;;;;;34.05;18.33;;;;;;;5.43;100.00;97551.66;5051557;28;20499;-62
2024/03/07 11:12:12;;;;;;;34.15;18.35;;;;;;;5.18;100.00;97560.44;5057904;28;20036;-63
2024/03/07 11:14:40;;;;;;;31.90;17.02;;;;;;;5.41;100.00;97549.19;5057286;28;20051;-63
2024/03/07 11:17:09;;;;;;;33.40;16.90;;;;;;;5.40;100.00;97549.41;5058005;28;20048;-63
2024/03/07 11:19:39;;;;;;;29.38;17.30;;;;;;;5.61;100.00;97556.34;5049488;28;20040;-64
2024/03/07 11:22:15;;;;;;;30.40;17.20;;;;;;;5.69;100.00;97549.88;5057195;28;20048;-63